LIBP/PSR METAR and TAF weather

Enter ICAO airport designator
Station Type Date Time Source
LIBP METAR 2022/12/02 22:50 UTC NOAA

LIBP 022250Z AUTO 24003KT 7000 OVC100/// 08/08 Q1018


Station Type Date Time Source
LIBP Decoded METAR 2022/12/02 22:50 UTC NOAA

Pescara, Italy (LIBP) 42-26N 014-12E 11M
Dec 02, 2022 - 05:50 PM EST / 2022.12.02 2250 UTC
Wind: from the WSW (240 degrees) at 3 MPH (3 KT):0
Visibility: 4 mile(s):0
Sky conditions: overcast
Temperature: 46 F (8 C)
Dew Point: 46 F (8 C)
Relative Humidity: 100%
Pressure (altimeter): 30.06 in. Hg (1018 hPa)
ob: LIBP 022250Z AUTO 24003KT 7000 OVC100/// 08/08 Q1018
cycle: 23

Station Type Date Time Source
LIBP TAF 2022/12/02 18:21 UTC NOAA

TAF LIBP 021700Z 0218/0318 VRB05KT 9999 SCT060
TEMPO 0218/0221 RA
TEMPO 0221/0307 3000 BR

Example: see airport list